sensor_id;sensor_type;location;lat;lon;timestamp;P1;durP1;ratioP1;P2;durP2;ratioP2
26578;SDS011;14227;47.674;19.320;2023-05-16T00:00:41;11.18;;;8.88;;
26578;SDS011;14227;47.674;19.320;2023-05-16T00:03:07;11.20;;;7.68;;
26578;SDS011;14227;47.674;19.320;2023-05-16T00:05:34;15.27;;;8.50;;
26578;SDS011;14227;47.674;19.320;2023-05-16T00:08:00;11.30;;;8.07;;
26578;SDS011;14227;47.674;19.320;2023-05-16T00:10:26;14.00;;;8.52;;
26578;SDS011;14227;47.674;19.320;2023-05-16T00:12:52;10.55;;;7.90;;
26578;SDS011;14227;47.674;19.320;2023-05-16T00:15:18;10.35;;;8.23;;
26578;SDS011;14227;47.674;19.320;2023-05-16T00:17:44;12.15;;;8.57;;
26578;SDS011;14227;47.674;19.320;2023-05-16T00:20:11;10.10;;;8.30;;
26578;SDS011;14227;47.674;19.320;2023-05-16T00:22:38;14.02;;;8.35;;
26578;SDS011;14227;47.674;19.320;2023-05-16T00:25:05;13.13;;;8.52;;
26578;SDS011;14227;47.674;19.320;2023-05-16T00:27:33;11.68;;;8.10;;
26578;SDS011;14227;47.674;19.320;2023-05-16T00:30:00;11.25;;;8.07;;
26578;SDS011;14227;47.674;19.320;2023-05-16T00:32:26;9.55;;;7.47;;
26578;SDS011;14227;47.674;19.320;2023-05-16T00:34:52;9.90;;;7.63;;
26578;SDS011;14227;47.674;19.320;2023-05-16T00:37:18;11.15;;;7.47;;
26578;SDS011;14227;47.674;19.320;2023-05-16T00:39:44;12.55;;;7.40;;
26578;SDS011;14227;47.674;19.320;2023-05-16T00:42:09;11.57;;;7.75;;
26578;SDS011;14227;47.674;19.320;2023-05-16T00:44:35;14.48;;;7.65;;
26578;SDS011;14227;47.674;19.320;2023-05-16T00:47:01;10.77;;;7.60;;
26578;SDS011;14227;47.674;19.320;2023-05-16T00:49:28;10.43;;;7.20;;
26578;SDS011;14227;47.674;19.320;2023-05-16T00:51:54;11.07;;;8.40;;
26578;SDS011;14227;47.674;19.320;2023-05-16T00:54:23;11.18;;;9.02;;
26578;SDS011;14227;47.674;19.320;2023-05-16T00:56:53;10.98;;;7.78;;
26578;SDS011;14227;47.674;19.320;2023-05-16T00:59:20;15.80;;;7.80;;
26578;SDS011;14227;47.674;19.320;2023-05-16T01:01:46;9.85;;;7.13;;
26578;SDS011;14227;47.674;19.320;2023-05-16T01:04:13;9.10;;;6.70;;
26578;SDS011;14227;47.674;19.320;2023-05-16T01:06:38;10.07;;;6.93;;
26578;SDS011;14227;47.674;19.320;2023-05-16T01:09:05;8.90;;;6.43;;
26578;SDS011;14227;47.674;19.320;2023-05-16T01:24:30;8.98;;;5.35;;
26578;SDS011;14227;47.674;19.320;2023-05-16T01:26:59;8.05;;;5.90;;
26578;SDS011;14227;47.674;19.320;2023-05-16T01:29:24;7.97;;;5.32;;
26578;SDS011;14227;47.674;19.320;2023-05-16T01:31:50;8.80;;;6.05;;
26578;SDS011;14227;47.674;19.320;2023-05-16T01:34:16;6.20;;;5.57;;
26578;SDS011;14227;47.674;19.320;2023-05-16T01:44:30;8.10;;;6.35;;
26578;SDS011;14227;47.674;19.320;2023-05-16T01:47:09;10.63;;;6.78;;
26578;SDS011;14227;47.674;19.320;2023-05-16T01:52:34;6.93;;;6.22;;
26578;SDS011;14227;47.674;19.320;2023-05-16T01:55:10;6.90;;;6.20;;
26578;SDS011;14227;47.674;19.320;2023-05-16T01:57:45;8.77;;;6.70;;
26578;SDS011;14227;47.674;19.320;2023-05-16T02:00:13;8.38;;;6.35;;
26578;SDS011;14227;47.674;19.320;2023-05-16T02:02:39;7.00;;;5.07;;
26578;SDS011;14227;47.674;19.320;2023-05-16T02:05:04;11.30;;;5.53;;
26578;SDS011;14227;47.674;19.320;2023-05-16T02:07:30;6.75;;;6.03;;
26578;SDS011;14227;47.674;19.320;2023-05-16T02:09:57;9.57;;;6.65;;
26578;SDS011;14227;47.674;19.320;2023-05-16T02:12:23;10.02;;;6.97;;
26578;SDS011;14227;47.674;19.320;2023-05-16T02:14:49;8.60;;;6.90;;
26578;SDS011;14227;47.674;19.320;2023-05-16T02:17:15;9.23;;;6.72;;
26578;SDS011;14227;47.674;19.320;2023-05-16T02:19:40;10.98;;;7.50;;
26578;SDS011;14227;47.674;19.320;2023-05-16T02:22:06;12.27;;;7.60;;
26578;SDS011;14227;47.674;19.320;2023-05-16T02:24:32;9.27;;;7.18;;
26578;SDS011;14227;47.674;19.320;2023-05-16T02:26:58;12.85;;;6.93;;
26578;SDS011;14227;47.674;19.320;2023-05-16T02:29:24;8.90;;;6.35;;
26578;SDS011;14227;47.674;19.320;2023-05-16T02:31:49;7.00;;;6.20;;
26578;SDS011;14227;47.674;19.320;2023-05-16T02:34:15;9.05;;;5.28;;
26578;SDS011;14227;47.674;19.320;2023-05-16T02:36:41;8.73;;;4.90;;
26578;SDS011;14227;47.674;19.320;2023-05-16T02:39:07;8.00;;;5.57;;
26578;SDS011;14227;47.674;19.320;2023-05-16T02:41:36;6.68;;;5.50;;
26578;SDS011;14227;47.674;19.320;2023-05-16T02:44:05;7.30;;;5.00;;
26578;SDS011;14227;47.674;19.320;2023-05-16T02:46:32;7.10;;;5.70;;
26578;SDS011;14227;47.674;19.320;2023-05-16T02:49:02;8.35;;;5.72;;
26578;SDS011;14227;47.674;19.320;2023-05-16T02:51:34;8.05;;;5.72;;
26578;SDS011;14227;47.674;19.320;2023-05-16T02:54:03;7.57;;;5.38;;
26578;SDS011;14227;47.674;19.320;2023-05-16T02:56:32;7.32;;;5.75;;
26578;SDS011;14227;47.674;19.320;2023-05-16T02:59:00;6.35;;;5.05;;
26578;SDS011;14227;47.674;19.320;2023-05-16T03:01:25;7.30;;;5.70;;
26578;SDS011;14227;47.674;19.320;2023-05-16T03:03:57;8.05;;;5.70;;
26578;SDS011;14227;47.674;19.320;2023-05-16T03:06:23;8.48;;;5.90;;
26578;SDS011;14227;47.674;19.320;2023-05-16T03:08:52;9.73;;;5.85;;
26578;SDS011;14227;47.674;19.320;2023-05-16T03:14:40;7.75;;;6.20;;
26578;SDS011;14227;47.674;19.320;2023-05-16T03:17:08;7.57;;;6.10;;
26578;SDS011;14227;47.674;19.320;2023-05-16T03:19:56;8.85;;;6.03;;
26578;SDS011;14227;47.674;19.320;2023-05-16T03:22:39;8.95;;;6.22;;
26578;SDS011;14227;47.674;19.320;2023-05-16T03:26:19;6.30;;;5.32;;
26578;SDS011;14227;47.674;19.320;2023-05-16T03:28:59;8.93;;;5.65;;
26578;SDS011;14227;47.674;19.320;2023-05-16T03:31:30;8.68;;;5.63;;
26578;SDS011;14227;47.674;19.320;2023-05-16T03:33:57;6.00;;;5.22;;
26578;SDS011;14227;47.674;19.320;2023-05-16T03:36:23;6.03;;;5.15;;
26578;SDS011;14227;47.674;19.320;2023-05-16T03:38:50;6.00;;;5.40;;
26578;SDS011;14227;47.674;19.320;2023-05-16T03:41:19;7.93;;;4.95;;
26578;SDS011;14227;47.674;19.320;2023-05-16T03:46:53;6.28;;;5.18;;
26578;SDS011;14227;47.674;19.320;2023-05-16T03:49:24;5.72;;;5.13;;
26578;SDS011;14227;47.674;19.320;2023-05-16T03:51:52;6.03;;;5.22;;
26578;SDS011;14227;47.674;19.320;2023-05-16T03:54:18;7.75;;;5.00;;
26578;SDS011;14227;47.674;19.320;2023-05-16T03:56:44;5.93;;;4.82;;
26578;SDS011;14227;47.674;19.320;2023-05-16T03:59:13;5.68;;;5.07;;
26578;SDS011;14227;47.674;19.320;2023-05-16T04:01:42;6.18;;;4.68;;
26578;SDS011;14227;47.674;19.320;2023-05-16T04:04:37;4.40;;;4.00;;
26578;SDS011;14227;47.674;19.320;2023-05-16T04:07:03;6.53;;;4.28;;
26578;SDS011;14227;47.674;19.320;2023-05-16T04:09:40;6.43;;;4.05;;
26578;SDS011;14227;47.674;19.320;2023-05-16T05:09:27;5.10;;;4.15;;
26578;SDS011;14227;47.674;19.320;2023-05-16T05:33:00;8.68;;;7.18;;
26578;SDS011;14227;47.674;19.320;2023-05-16T05:43:13;6.97;;;6.25;;
26578;SDS011;14227;47.674;19.320;2023-05-16T05:46:20;7.55;;;5.80;;
26578;SDS011;14227;47.674;19.320;2023-05-16T05:49:02;6.82;;;5.50;;
26578;SDS011;14227;47.674;19.320;2023-05-16T05:51:53;7.28;;;6.43;;
26578;SDS011;14227;47.674;19.320;2023-05-16T05:54:19;10.25;;;5.88;;
26578;SDS011;14227;47.674;19.320;2023-05-16T05:56:47;8.52;;;4.93;;
26578;SDS011;14227;47.674;19.320;2023-05-16T05:59:49;6.35;;;5.05;;
26578;SDS011;14227;47.674;19.320;2023-05-16T06:02:20;11.13;;;5.93;;
26578;SDS011;14227;47.674;19.320;2023-05-16T06:04:51;8.50;;;6.15;;
26578;SDS011;14227;47.674;19.320;2023-05-16T06:07:54;10.95;;;6.03;;
26578;SDS011;14227;47.674;19.320;2023-05-16T06:14:20;10.10;;;5.63;;
26578;SDS011;14227;47.674;19.320;2023-05-16T06:20:43;5.32;;;4.82;;
26578;SDS011;14227;47.674;19.320;2023-05-16T06:23:55;5.40;;;4.85;;
26578;SDS011;14227;47.674;19.320;2023-05-16T06:27:04;5.28;;;4.63;;
26578;SDS011;14227;47.674;19.320;2023-05-16T06:33:55;5.90;;;5.18;;
26578;SDS011;14227;47.674;19.320;2023-05-16T06:37:10;7.32;;;4.07;;
26578;SDS011;14227;47.674;19.320;2023-05-16T07:18:29;7.13;;;5.10;;
26578;SDS011;14227;47.674;19.320;2023-05-16T07:21:33;9.70;;;5.60;;
26578;SDS011;14227;47.674;19.320;2023-05-16T07:24:23;7.88;;;5.60;;
26578;SDS011;14227;47.674;19.320;2023-05-16T07:26:57;9.60;;;6.88;;
26578;SDS011;14227;47.674;19.320;2023-05-16T07:29:23;13.27;;;7.65;;
26578;SDS011;14227;47.674;19.320;2023-05-16T07:31:56;16.27;;;9.85;;
26578;SDS011;14227;47.674;19.320;2023-05-16T07:38:52;32.35;;;18.15;;
26578;SDS011;14227;47.674;19.320;2023-05-16T07:42:13;29.67;;;18.50;;
26578;SDS011;14227;47.674;19.320;2023-05-16T07:51:47;27.77;;;18.40;;
26578;SDS011;14227;47.674;19.320;2023-05-16T07:57:45;29.10;;;18.80;;
26578;SDS011;14227;47.674;19.320;2023-05-16T08:00:11;28.98;;;20.10;;
26578;SDS011;14227;47.674;19.320;2023-05-16T08:02:41;27.40;;;18.42;;
26578;SDS011;14227;47.674;19.320;2023-05-16T08:12:09;19.02;;;15.40;;
26578;SDS011;14227;47.674;19.320;2023-05-16T08:21:50;24.25;;;16.80;;
26578;SDS011;14227;47.674;19.320;2023-05-16T08:24:29;23.67;;;15.80;;
26578;SDS011;14227;47.674;19.320;2023-05-16T08:26:59;19.27;;;15.27;;
26578;SDS011;14227;47.674;19.320;2023-05-16T08:29:25;17.65;;;14.48;;
26578;SDS011;14227;47.674;19.320;2023-05-16T08:31:54;20.20;;;15.60;;
26578;SDS011;14227;47.674;19.320;2023-05-16T08:34:19;19.23;;;15.27;;
26578;SDS011;14227;47.674;19.320;2023-05-16T08:36:45;18.00;;;14.18;;
26578;SDS011;14227;47.674;19.320;2023-05-16T08:39:11;15.98;;;13.27;;
26578;SDS011;14227;47.674;19.320;2023-05-16T08:41:37;17.35;;;13.63;;
26578;SDS011;14227;47.674;19.320;2023-05-16T08:44:05;16.13;;;13.27;;
26578;SDS011;14227;47.674;19.320;2023-05-16T08:46:31;16.30;;;13.55;;
26578;SDS011;14227;47.674;19.320;2023-05-16T08:48:59;17.30;;;13.75;;
26578;SDS011;14227;47.674;19.320;2023-05-16T08:51:30;16.08;;;12.95;;
26578;SDS011;14227;47.674;19.320;2023-05-16T08:54:09;15.30;;;12.25;;
26578;SDS011;14227;47.674;19.320;2023-05-16T08:56:37;14.73;;;12.32;;
26578;SDS011;14227;47.674;19.320;2023-05-16T08:59:03;14.82;;;12.65;;
26578;SDS011;14227;47.674;19.320;2023-05-16T09:01:29;14.43;;;12.13;;
26578;SDS011;14227;47.674;19.320;2023-05-16T09:03:59;15.35;;;10.95;;
26578;SDS011;14227;47.674;19.320;2023-05-16T09:06:25;14.05;;;11.52;;
26578;SDS011;14227;47.674;19.320;2023-05-16T09:08:52;14.93;;;11.20;;
26578;SDS011;14227;47.674;19.320;2023-05-16T09:11:18;13.52;;;11.32;;
26578;SDS011;14227;47.674;19.320;2023-05-16T09:13:45;14.10;;;11.82;;
26578;SDS011;14227;47.674;19.320;2023-05-16T09:16:13;13.75;;;10.98;;
26578;SDS011;14227;47.674;19.320;2023-05-16T09:18:42;12.98;;;10.50;;
26578;SDS011;14227;47.674;19.320;2023-05-16T09:21:11;13.50;;;10.75;;
26578;SDS011;14227;47.674;19.320;2023-05-16T09:23:37;12.68;;;10.13;;
26578;SDS011;14227;47.674;19.320;2023-05-16T09:26:07;13.65;;;10.18;;
26578;SDS011;14227;47.674;19.320;2023-05-16T09:29:15;11.48;;;9.93;;
26578;SDS011;14227;47.674;19.320;2023-05-16T09:31:41;10.63;;;9.27;;
26578;SDS011;14227;47.674;19.320;2023-05-16T09:34:13;10.30;;;9.23;;
26578;SDS011;14227;47.674;19.320;2023-05-16T09:36:39;10.52;;;9.43;;
26578;SDS011;14227;47.674;19.320;2023-05-16T09:39:09;9.77;;;8.77;;
26578;SDS011;14227;47.674;19.320;2023-05-16T09:41:40;10.82;;;8.93;;
26578;SDS011;14227;47.674;19.320;2023-05-16T09:44:07;11.70;;;8.80;;
26578;SDS011;14227;47.674;19.320;2023-05-16T09:46:34;13.00;;;9.10;;
26578;SDS011;14227;47.674;19.320;2023-05-16T09:49:01;10.38;;;8.95;;
26578;SDS011;14227;47.674;19.320;2023-05-16T09:51:28;10.73;;;8.52;;
26578;SDS011;14227;47.674;19.320;2023-05-16T09:53:57;10.57;;;8.95;;
26578;SDS011;14227;47.674;19.320;2023-05-16T09:56:55;9.60;;;8.52;;
26578;SDS011;14227;47.674;19.320;2023-05-16T09:59:45;9.52;;;8.10;;
26578;SDS011;14227;47.674;19.320;2023-05-16T10:02:12;11.82;;;9.13;;
26578;SDS011;14227;47.674;19.320;2023-05-16T10:04:38;8.95;;;7.97;;
26578;SDS011;14227;47.674;19.320;2023-05-16T10:07:04;8.80;;;7.90;;
26578;SDS011;14227;47.674;19.320;2023-05-16T10:09:40;11.18;;;8.57;;
26578;SDS011;14227;47.674;19.320;2023-05-16T10:12:20;10.73;;;8.07;;
26578;SDS011;14227;47.674;19.320;2023-05-16T10:15:20;8.57;;;7.68;;
26578;SDS011;14227;47.674;19.320;2023-05-16T10:17:49;7.80;;;7.00;;
26578;SDS011;14227;47.674;19.320;2023-05-16T10:20:19;8.00;;;7.05;;
26578;SDS011;14227;47.674;19.320;2023-05-16T10:22:45;7.72;;;6.93;;
26578;SDS011;14227;47.674;19.320;2023-05-16T10:28:05;8.30;;;6.85;;
26578;SDS011;14227;47.674;19.320;2023-05-16T10:30:32;7.03;;;6.32;;
26578;SDS011;14227;47.674;19.320;2023-05-16T10:33:00;7.00;;;6.22;;
26578;SDS011;14227;47.674;19.320;2023-05-16T10:35:28;7.30;;;6.40;;
26578;SDS011;14227;47.674;19.320;2023-05-16T10:38:01;8.20;;;6.68;;
26578;SDS011;14227;47.674;19.320;2023-05-16T10:40:47;9.02;;;7.00;;
26578;SDS011;14227;47.674;19.320;2023-05-16T10:43:21;8.25;;;6.78;;
26578;SDS011;14227;47.674;19.320;2023-05-16T10:45:55;7.35;;;6.32;;
26578;SDS011;14227;47.674;19.320;2023-05-16T10:48:35;7.20;;;6.50;;
26578;SDS011;14227;47.674;19.320;2023-05-16T10:51:03;6.70;;;6.03;;
26578;SDS011;14227;47.674;19.320;2023-05-16T10:54:09;7.47;;;5.90;;
26578;SDS011;14227;47.674;19.320;2023-05-16T10:56:39;6.50;;;5.82;;
26578;SDS011;14227;47.674;19.320;2023-05-16T10:59:21;7.35;;;6.22;;
26578;SDS011;14227;47.674;19.320;2023-05-16T11:01:53;7.80;;;6.10;;
26578;SDS011;14227;47.674;19.320;2023-05-16T11:04:20;6.60;;;5.95;;
26578;SDS011;14227;47.674;19.320;2023-05-16T11:06:48;6.28;;;5.68;;
26578;SDS011;14227;47.674;19.320;2023-05-16T11:09:17;6.80;;;6.10;;
26578;SDS011;14227;47.674;19.320;2023-05-16T11:11:59;6.25;;;5.65;;
26578;SDS011;14227;47.674;19.320;2023-05-16T11:22:31;6.45;;;5.20;;
26578;SDS011;14227;47.674;19.320;2023-05-16T11:28:09;6.22;;;5.63;;
26578;SDS011;14227;47.674;19.320;2023-05-16T11:31:41;5.65;;;5.15;;
26578;SDS011;14227;47.674;19.320;2023-05-16T11:41:12;8.80;;;5.55;;
26578;SDS011;14227;47.674;19.320;2023-05-16T11:43:59;7.53;;;5.40;;
26578;SDS011;14227;47.674;19.320;2023-05-16T13:07:57;12.70;;;7.15;;
26578;SDS011;14227;47.674;19.320;2023-05-16T13:13:43;13.77;;;7.65;;
26578;SDS011;14227;47.674;19.320;2023-05-16T13:20:28;13.43;;;7.80;;
26578;SDS011;14227;47.674;19.320;2023-05-16T13:23:10;12.98;;;8.40;;
26578;SDS011;14227;47.674;19.320;2023-05-16T13:25:43;12.25;;;7.93;;
26578;SDS011;14227;47.674;19.320;2023-05-16T13:29:05;14.77;;;8.02;;
26578;SDS011;14227;47.674;19.320;2023-05-16T13:36:09;21.15;;;8.77;;
26578;SDS011;14227;47.674;19.320;2023-05-16T14:13:39;11.93;;;7.05;;
